Decoded Metar for KDHN (DOTHAN in AL, USA) (IATA:DHN) | Meteo·Mobile Aviation Weather
aviador You're here:

KDHN Decoded Metar

DOTHAN in AL, USA
Report Time2019-05-25 21:53:00
UTC Time2019-05-25 22:53:28
Flight Rules vfr VFR
WindCalm
Visibility9999 m
Phenomena:N/A
Clouds:Few 080 Hf
Expected CloudBase > 9,200 ft AGL from Temp-Dew spread
CeilingNone
Temp36°C (ISA +22)
Dew Point13°C (25% RH)
Heat Index35.0°C
QNH1020 hPa
Density Alt2,802 ft
Elevation371 ft
Report Wrong Elevation
Raw Report
KDHN 252153Z 00000KT 10SM FEW080 36/13 A3012 RMK AO2 SLP191
T03560128=

Extra information for KDHN:More info

Metar Taf Metar & Taf Last 4 Metars F.Rules Stats Wind Profile Meteogram Temp Stats Airport Information Weather charts Add Link Nearby VenuesMetar ALERT Operation Metar Decoded Social comments

AIRNAV info for KDHN